»·PEaware :: N656FP KPHX-KABQ

N656FP :: KPHX-KABQ

FLIGHT INFORMATION

Flight Status: Arrived
Operator: Privately registered:
United States
More flights under this callsign
Pilot: Andre N. (13929)
Aircraft: ECLIPSE 500
(EA50)
More flights by this aircraft type
Origin: KPHX Phoenix Sky Harbor Intl
United States
Destination: KABQ Albuquerque Intl Sunport
United States
More flights between these airports :: More routes between these airports
Route: LALUZ5 SJN CABNO KRKEE3
File this flight plan on PilotEdge
Remarks:
Altitude:
(Current/Filed)
27,000ft
Speed:
(Current/Filed)
250kts
Departed: 02-May-18 08:23 AM
Arrived: 02-May-18 09:25 AM
Distance/Time
Traveled:
284nm/1:02
Distance/Time
To Go:
Arrived

Flight Plot

Page will automatically refresh every two minutes.

Flight plan parsing failed; only flown route is shown


Map Options




Map Legend


Flown Route
Filed Route
Departure Airport
Arrival Airport
Navaid (VOR, NDB)
Fix

Horizontal Profiles

Position Reports

Time Latitude Longitude Heading Altitude Ground
Speed
02-May-18 08:03 33.425770 -112.019526 270 1112ft 0kts
02-May-18 08:04 33.425770 -112.019526 270 1112ft 0kts
02-May-18 08:05 33.425770 -112.019526 270 1112ft 0kts
02-May-18 08:06 33.425770 -112.019526 270 1112ft 0kts
02-May-18 08:07 33.425770 -112.019526 270 1112ft 0kts
02-May-18 08:08 33.425770 -112.019526 270 1112ft 0kts
02-May-18 08:09 33.425770 -112.019526 270 1112ft 0kts
02-May-18 08:10 33.425770 -112.019526 270 1112ft 0kts
02-May-18 08:11 33.425770 -112.019526 270 1112ft 0kts
02-May-18 08:12 33.425770 -112.019526 270 1112ft 0kts
02-May-18 08:13 33.425770 -112.019526 270 1112ft 0kts
02-May-18 08:14 33.425770 -112.019526 270 1112ft 0kts
02-May-18 08:15 33.425770 -112.019526 270 1112ft 0kts
02-May-18 08:16 33.425789 -112.019615 292 1112ft 1kts
02-May-18 08:17 33.426127 -112.021011 329 1112ft 6kts
02-May-18 08:18 33.426438 -112.021127 351 1112ft 0kts
02-May-18 08:19 33.427608 -112.021195 327 1112ft 6kts
02-May-18 08:20 33.427749 -112.023412 270 1112ft 5kts
02-May-18 08:21 33.427795 -112.026623 282 1112ft 7kts
02-May-18 08:22 33.428726 -112.026949 12 1112ft 10kts
02-May-18 08:23 33.429239 -112.002213 86 1695ft 153kts
02-May-18 08:24 33.432691 -111.944092 87 3919ft 183kts
02-May-18 08:25 33.440012 -111.883434 64 6169ft 193kts
02-May-18 08:25 33.459022 -111.835400 63 7918ft 199kts
02-May-18 08:27 33.487626 -111.764374 64 10213ft 207kts
02-May-18 08:28 33.512949 -111.701412 62 12010ft 214kts
02-May-18 08:29 33.539275 -111.636325 62 13665ft 221kts
02-May-18 08:30 33.566475 -111.568998 62 15207ft 228kts
02-May-18 08:31 33.594384 -111.499789 62 16630ft 234kts
02-May-18 08:31 33.618160 -111.440734 62 17732ft 239kts
02-May-18 08:32 33.647367 -111.368049 62 18972ft 245kts
02-May-18 08:33 33.676797 -111.294654 62 19981ft 250kts
02-May-18 08:34 33.705328 -111.217826 65 20927ft 255kts
02-May-18 08:36 33.738359 -111.125400 65 21935ft 260kts
02-May-18 08:36 33.762286 -111.058430 65 22623ft 263kts
02-May-18 08:37 33.791158 -110.977320 65 23385ft 267kts
02-May-18 08:38 33.820232 -110.895360 65 24095ft 270kts
02-May-18 08:39 33.849977 -110.811293 65 24750ft 274kts
02-May-18 08:40 33.879921 -110.726447 65 25373ft 278kts
02-May-18 08:41 33.910283 -110.640176 65 25953ft 282kts
02-May-18 08:42 33.940877 -110.553017 65 26494ft 285kts
02-May-18 08:43 33.971918 -110.464436 67 27009ft 292kts
02-May-18 08:44 34.002966 -110.375243 65 27026ft 289kts
02-May-18 08:45 34.033781 -110.286842 66 27020ft 289kts
02-May-18 08:46 34.064857 -110.197345 66 27023ft 295kts
02-May-18 08:47 34.098888 -110.099033 67 27023ft 334kts
02-May-18 08:48 34.133587 -109.998429 67 27022ft 353kts
02-May-18 08:49 34.172213 -109.886077 67 27022ft 369kts
02-May-18 08:50 34.211866 -109.770323 67 27007ft 379kts
02-May-18 08:51 34.252214 -109.652264 68 26993ft 384kts
02-May-18 08:52 34.292717 -109.533289 70 26993ft 375kts
02-May-18 08:53 34.331921 -109.417276 70 26995ft 374kts
02-May-18 08:54 34.370913 -109.301686 71 26992ft 374kts
02-May-18 08:55 34.410101 -109.185104 71 26992ft 374kts
02-May-18 08:56 34.433544 -109.064031 84 26993ft 369kts
02-May-18 08:57 34.449504 -108.941537 85 26994ft 369kts
02-May-18 08:58 34.464881 -108.819585 85 26994ft 369kts
02-May-18 08:59 34.480172 -108.696650 85 26995ft 369kts
02-May-18 09:00 34.495324 -108.573636 85 27008ft 369kts
02-May-18 09:01 34.513453 -108.450977 81 27023ft 371kts
02-May-18 09:02 34.533788 -108.332105 82 27021ft 371kts
02-May-18 09:03 34.552697 -108.221297 82 26300ft 358kts
02-May-18 09:04 34.571624 -108.104429 82 25096ft 350kts
02-May-18 09:05 34.591145 -107.989598 81 23897ft 345kts
02-May-18 09:06 34.610561 -107.876258 81 22704ft 342kts
02-May-18 09:07 34.640401 -107.767175 64 21505ft 345kts
02-May-18 09:08 34.684145 -107.664425 64 20320ft 342kts
02-May-18 09:09 34.727587 -107.561706 64 19134ft 340kts
02-May-18 09:10 34.770902 -107.460744 63 18000ft 331kts
02-May-18 09:11 34.811526 -107.363835 62 17001ft 316kts
02-May-18 09:12 34.851740 -107.272021 65 16020ft 306kts
02-May-18 09:13 34.888941 -107.182476 65 14974ft 294kts
02-May-18 09:14 34.895088 -107.091017 94 12963ft 263kts
02-May-18 09:15 34.890120 -107.005333 94 11056ft 248kts
02-May-18 09:16 34.884991 -106.922767 94 9159ft 244kts
02-May-18 09:17 34.879619 -106.842671 94 8003ft 219kts
02-May-18 09:18 34.895651 -106.781994 43 7793ft 191kts
02-May-18 09:19 34.932054 -106.739146 44 7403ft 162kts
02-May-18 09:20 34.959738 -106.705981 44 7041ft 126kts
02-May-18 09:21 34.982782 -106.677898 44 6358ft 112kts
02-May-18 09:22 35.005496 -106.650922 44 5792ft 114kts
02-May-18 09:23 35.027604 -106.624133 44 5312ft 99kts
02-May-18 09:24 35.033607 -106.617802 15 5312ft 0kts
02-May-18 09:25 35.033963 -106.618046 310 5312ft 9kts
02-May-18 09:26 35.035483 -106.619244 36 5312ft 5kts

Navigation Log

Ident Type
Flight plan parsing failed, navigation log unavailable